Terminal Aerodrome Forecast
Issued by NWS Amarillo, TX

Home | Current Version | Previous Version | Text Only | Print | Product List | Glossary On
Versions: 1 2 3 4 5 6 7 8 9 10 11 12 13 14 15
741
FTUS44 KAMA 061120
TAFAMA
TAF
KAMA 061120Z 0612/0712 26008KT P6SM SKC
     FM062200 19008KT P6SM FEW250
     FM071000 28008KT P6SM FEW250=

USA.gov is the U.S. government's official web portal to all federal, state and local government web resources and services.